Renton, Washington
Current Conditions -  °F | °C
As of 8:53 PM on Wednesday 22 Oct 2014 (Local Time) from KRNT Reporting Station
Light Rain Light Rain  
Wind Chill: 57°   Ceiling: 3700
Heat Index: 57°   Visibility: 6mi
Dew Point: 54°   Wind: 3mph
Humidity: 89%   Direction: NA
Pressure: 29.61"   Gusts: NA
Location:  47.48°N, 122.2°W
Report Text: KRNT 230353Z AUTO VRB03KT 6SM -RA BR OVC037 14/12 A2961 RMK AO2 RAB08 SLP033 P0003 T01390122
Loading
Personal Weather Stations






























Interactive Weather Map
Tropical Storm Tracking
New forecast layout! Learn more

10-Day Weather Forecast

Advertisements
Track Severe Weather on mobile